Time;durP1;ratioP1;P1;durP2;ratioP2;P2;SDS_P1;SDS_P2;PMS_P1;PMS_P2;Temp;Humidity;BMP_temperature;BMP_pressure;BME280_temperature;BME280_humidity;BME280_pressure;Samples;Min_cycle;Max_cycle;Signal;HPM_P1;HPM_P2
2022/04/06 00:00:25;;;;;;;24.73;11.10;;;;;;;8.94;94.64;100409.53;5083797;28;20099;-63
2022/04/06 00:02:50;;;;;;;26.30;11.13;;;;;;;8.98;93.90;100403.38;5084278;28;20038;-63
2022/04/06 00:05:16;;;;;;;31.15;11.63;;;;;;;8.98;93.56;100397.06;5083472;28;20059;-63
2022/04/06 00:07:42;;;;;;;23.77;10.48;;;;;;;8.93;94.18;100408.69;5084134;28;20035;-63
2022/04/06 00:10:09;;;;;;;26.52;11.02;;;;;;;8.98;93.34;100397.88;5085132;28;20020;-63
2022/04/06 00:12:35;;;;;;;25.80;11.57;;;;;;;8.92;93.61;100400.69;5084066;28;20054;-63
2022/04/06 00:15:01;;;;;;;31.23;11.82;;;;;;;8.89;93.89;100401.16;5068681;28;20132;-63
2022/04/06 00:17:27;;;;;;;22.88;11.48;;;;;;;8.89;94.05;100401.16;5074061;28;20593;-63
2022/04/06 00:19:53;;;;;;;25.05;11.20;;;;;;;9.01;92.55;100391.09;5083550;28;20051;-63
2022/04/06 00:22:19;;;;;;;24.25;10.80;;;;;;;8.97;92.84;100392.63;5083974;28;20064;-63
2022/04/06 00:24:44;;;;;;;33.45;10.95;;;;;;;9.00;92.45;100395.72;5084198;28;20046;-63
2022/04/06 00:27:09;;;;;;;26.38;10.38;;;;;;;8.95;93.20;100394.75;5072303;28;20024;-67
2022/04/06 00:29:35;;;;;;;28.02;10.70;;;;;;;8.90;93.39;100389.97;5077291;28;20028;-63
2022/04/06 00:32:00;;;;;;;30.05;10.93;;;;;;;8.87;93.57;100393.19;5083913;28;20029;-63
2022/04/06 00:37:09;;;;;;;32.13;11.55;;;;;;;8.87;93.40;100382.25;5082367;28;20090;-63
2022/04/06 00:39:35;;;;;;;28.65;11.05;;;;;;;8.88;92.75;100374.84;5084644;28;20067;-63
2022/04/06 00:42:00;;;;;;;24.42;9.70;;;;;;;8.86;93.12;100375.06;5083581;28;20048;-63
2022/04/06 00:44:28;;;;;;;27.50;9.75;;;;;;;8.83;93.45;100376.38;5082638;28;20024;-63
2022/04/06 00:46:53;;;;;;;30.17;11.00;;;;;;;8.83;93.63;100375.53;5084018;28;20142;-63
2022/04/06 00:49:19;;;;;;;29.15;10.88;;;;;;;8.88;92.48;100377.59;5077970;28;20119;-63
2022/04/06 00:51:46;;;;;;;27.25;10.45;;;;;;;8.86;92.92;100375.06;5070958;28;20020;-63
2022/04/06 00:54:17;;;;;;;22.38;9.52;;;;;;;8.86;93.13;100374.22;5083375;28;20040;-63
2022/04/06 00:56:45;;;;;;;22.83;10.35;;;;;;;8.80;92.95;100378.72;5075343;28;20020;-63
2022/04/06 00:59:10;;;;;;;25.25;10.07;;;;;;;8.83;93.09;100370.06;5082072;28;20031;-64
2022/04/06 01:01:36;;;;;;;26.95;9.32;;;;;;;8.81;92.71;100370.28;5082346;28;20023;-63
2022/04/06 01:04:03;;;;;;;25.13;10.80;;;;;;;8.79;93.00;100360.63;5078987;28;20032;-63
2022/04/06 01:06:28;;;;;;;26.27;10.80;;;;;;;8.78;93.29;100359.81;5083308;28;20028;-63
2022/04/06 01:08:54;;;;;;;25.67;10.35;;;;;;;8.82;92.38;100361.03;5082958;28;20035;-65
2022/04/06 01:11:20;;;;;;;25.83;9.88;;;;;;;8.77;92.72;100358.13;5074944;22;20048;-63
2022/04/06 01:13:46;;;;;;;25.95;8.80;;;;;;;8.76;92.78;100355.63;5042347;28;20518;-63
2022/04/06 01:16:11;;;;;;;21.27;9.23;;;;;;;8.75;92.87;100357.50;5041501;28;20108;-63
2022/04/06 01:18:36;;;;;;;29.05;8.98;;;;;;;8.82;92.36;100358.28;5043202;28;20024;-63
2022/04/06 01:21:03;;;;;;;26.92;9.82;;;;;;;8.87;92.32;100356.72;5041254;28;20029;-62
2022/04/06 01:23:28;;;;;;;20.80;8.77;;;;;;;8.79;92.33;100353.25;5042583;28;20151;-63
2022/04/06 01:25:53;;;;;;;23.58;9.30;;;;;;;8.78;92.58;100357.06;5041547;28;20422;-63
2022/04/06 01:28:19;;;;;;;24.42;8.73;;;;;;;8.74;92.56;100349.53;5041305;28;20025;-63
2022/04/06 01:30:44;;;;;;;21.77;8.27;;;;;;;8.82;91.79;100346.50;5042176;28;20047;-63
2022/04/06 01:33:09;;;;;;;23.88;8.75;;;;;;;8.81;91.94;100350.28;5042705;28;20537;-63
2022/04/06 01:35:38;;;;;;;24.23;8.10;;;;;;;8.82;91.89;100349.25;5042750;28;20024;-63
2022/04/06 01:38:04;;;;;;;22.95;9.15;;;;;;;8.72;92.26;100338.84;5041738;28;20029;-63
2022/04/06 01:40:29;;;;;;;22.55;7.63;;;;;;;8.71;91.90;100345.34;5042323;28;20122;-63
2022/04/06 01:42:54;;;;;;;27.27;8.48;;;;;;;8.74;91.76;100342.16;5041498;28;20021;-62
2022/04/06 01:45:19;;;;;;;22.98;7.97;;;;;;;8.75;91.70;100343.81;5040745;28;20031;-62
2022/04/06 01:47:45;;;;;;;21.73;8.52;;;;;;;8.75;91.41;100332.88;5043015;28;20024;-63
2022/04/06 01:52:54;;;;;;;23.48;7.95;;;;;;;8.71;91.68;100339.03;5027109;28;20090;-63
2022/04/06 01:55:19;;;;;;;22.55;7.63;;;;;;;8.69;91.66;100341.19;5042472;28;20471;-63
2022/04/06 01:57:44;;;;;;;24.30;7.80;;;;;;;8.66;91.85;100333.44;5040407;28;20021;-62
2022/04/06 02:00:13;;;;;;;20.55;8.40;;;;;;;8.70;91.53;100334.63;5042222;28;20095;-63
2022/04/06 02:02:40;;;;;;;25.20;7.82;;;;;;;8.76;90.49;100341.91;5042078;28;20029;-62
2022/04/06 02:05:06;;;;;;;26.27;7.57;;;;;;;8.71;90.55;100331.66;5042693;28;20024;-62
2022/04/06 02:07:31;;;;;;;20.75;6.82;;;;;;;8.75;90.21;100330.13;5042135;28;20033;-63
2022/04/06 02:10:00;;;;;;;20.20;6.97;;;;;;;8.72;90.56;100329.78;5042790;28;20024;-62
2022/04/06 02:12:25;;;;;;;;;;;;;;;8.78;90.23;100332.44;5042530;28;20056;-63
2022/04/06 02:14:51;;;;;;;20.40;6.60;;;;;;;8.69;89.80;100325.59;5040881;28;20715;-63
2022/04/06 02:17:16;;;;;;;20.05;6.72;;;;;;;8.69;90.12;100328.34;5042257;28;20043;-63
2022/04/06 02:19:42;;;;;;;23.85;6.53;;;;;;;8.67;90.15;100319.53;5042829;28;20094;-63
2022/04/06 02:22:08;;;;;;;23.17;7.32;;;;;;;8.67;89.78;100325.00;5042356;28;20029;-62
2022/04/06 02:24:34;;;;;;;22.45;7.20;;;;;;;8.63;90.40;100322.94;5042019;28;20538;-63
2022/04/06 02:26:59;;;;;;;24.50;6.78;;;;;;;8.67;89.71;100321.41;5041513;28;20131;-63
2022/04/06 02:29:26;;;;;;;19.65;6.60;;;;;;;8.63;89.80;100321.06;5040782;28;20055;-63
2022/04/06 02:31:52;;;;;;;25.27;6.97;;;;;;;8.62;89.98;100313.91;5042327;28;20418;-63
2022/04/06 02:34:18;;;;;;;16.65;6.13;;;;;;;8.60;89.55;100306.97;5042475;28;20021;-63
2022/04/06 02:36:43;;;;;;;18.85;6.65;;;;;;;8.61;89.06;100309.47;5042010;28;20098;-63
2022/04/06 02:39:08;;;;;;;18.48;6.55;;;;;;;8.54;89.86;100308.75;5040284;28;20116;-63
2022/04/06 02:41:34;;;;;;;19.27;6.47;;;;;;;8.57;89.12;100311.03;5041888;28;20399;-62
2022/04/06 02:43:59;;;;;;;19.55;6.28;;;;;;;8.54;88.75;100301.38;5041805;28;20479;-64
2022/04/06 02:46:24;;;;;;;17.50;6.30;;;;;;;8.52;89.21;100302.69;5041134;28;20495;-63
2022/04/06 02:48:50;;;;;;;20.65;6.45;;;;;;;8.61;88.43;100298.53;5042485;28;20424;-62
2022/04/06 02:51:15;;;;;;;18.80;5.75;;;;;;;8.48;89.51;100296.00;5041666;28;20037;-63
2022/04/06 02:53:40;;;;;;;20.08;6.00;;;;;;;8.46;89.36;100298.09;5042815;28;20044;-67
2022/04/06 02:56:06;;;;;;;18.92;5.45;;;;;;;8.42;88.80;100299.66;5041759;28;20021;-63
2022/04/06 02:58:31;;;;;;;17.23;5.68;;;;;;;8.44;88.63;100302.97;5041949;28;20379;-63
2022/04/06 03:00:58;;;;;;;15.38;5.65;;;;;;;8.42;89.01;100300.47;5041899;28;20090;-62
2022/04/06 03:03:23;;;;;;;20.30;6.25;;;;;;;8.33;89.23;100286.25;5042176;28;20036;-63
2022/04/06 03:05:48;;;;;;;16.95;5.75;;;;;;;8.37;88.33;100288.56;5042412;28;20021;-63
2022/04/06 03:08:15;;;;;;;16.00;5.55;;;;;;;8.30;88.91;100291.31;5039054;28;20083;-63
2022/04/06 03:10:40;;;;;;;16.20;5.40;;;;;;;8.28;89.01;100285.25;5042253;28;20491;-63
2022/04/06 03:13:05;;;;;;;19.38;4.90;;;;;;;8.30;88.69;100283.94;5040013;28;20056;-63
2022/04/06 03:15:31;;;;;;;14.32;5.35;;;;;;;8.26;88.83;100287.38;5044043;28;20762;-63
2022/04/06 03:17:56;;;;;;;16.48;5.07;;;;;;;8.23;89.02;100280.47;5045686;28;20029;-64
2022/04/06 03:20:21;;;;;;;15.70;4.45;;;;;;;8.22;88.50;100281.53;5044321;28;20108;-63
2022/04/06 03:22:46;;;;;;;19.05;5.50;;;;;;;8.23;88.52;100276.91;5045262;28;20394;-63
2022/04/06 03:25:12;;;;;;;16.02;5.20;;;;;;;8.20;88.48;100275.44;5044713;28;20112;-63
2022/04/06 03:27:37;;;;;;;13.82;5.40;;;;;;;8.20;88.51;100266.41;5044764;28;20029;-63
2022/04/06 03:30:05;;;;;;;21.23;5.53;;;;;;;8.22;88.00;100264.31;5044772;28;20414;-63
2022/04/06 03:32:30;;;;;;;12.93;5.15;;;;;;;8.16;88.33;100260.59;5044871;28;20024;-63
2022/04/06 03:34:55;;;;;;;18.13;5.00;;;;;;;8.18;88.46;100252.97;5045507;28;20032;-63
2022/04/06 03:37:21;;;;;;;16.00;4.68;;;;;;;8.20;88.01;100248.09;5042035;28;20064;-63
2022/04/06 03:39:46;;;;;;;18.15;4.80;;;;;;;8.21;87.31;100243.44;5045079;28;20036;-63
2022/04/06 03:42:11;;;;;;;17.05;4.80;;;;;;;8.24;87.19;100243.84;5044621;28;20037;-63
2022/04/06 03:44:36;;;;;;;17.08;5.18;;;;;;;8.19;87.00;100238.22;5044710;28;20028;-63
2022/04/06 03:47:02;;;;;;;17.92;5.15;;;;;;;8.22;86.36;100240.50;5044416;28;20476;-63
2022/04/06 03:49:27;;;;;;;18.55;4.68;;;;;;;8.23;86.01;100241.34;5045047;28;20033;-63
2022/04/06 03:51:52;;;;;;;20.50;5.28;;;;;;;8.22;86.17;100236.94;5044837;28;20018;-63
2022/04/06 03:54:18;;;;;;;20.38;5.07;;;;;;;8.22;85.90;100240.50;5044383;28;20021;-63
2022/04/06 03:56:43;;;;;;;13.63;4.75;;;;;;;8.19;86.58;100246.44;5040959;28;20060;-63
2022/04/06 03:59:08;;;;;;;15.45;4.85;;;;;;;8.22;85.54;100243.25;5042147;28;20044;-63
2022/04/06 04:01:36;;;;;;;14.75;4.93;;;;;;;8.20;85.96;100244.53;5044876;28;20025;-63
2022/04/06 04:04:04;;;;;;;13.57;4.55;;;;;;;8.26;85.34;100244.47;5044846;28;20422;-63
2022/04/06 04:06:29;;;;;;;17.55;4.32;;;;;;;8.23;85.07;100241.34;5044568;28;20039;-63
2022/04/06 04:08:54;;;;;;;18.40;4.50;;;;;;;8.29;84.46;100254.94;5042770;28;20025;-63
2022/04/06 04:11:20;;;;;;;13.00;4.20;;;;;;;8.29;84.41;100238.50;5044016;28;20048;-63
2022/04/06 04:13:45;;;;;;;15.07;4.47;;;;;;;8.29;83.87;100238.50;5042443;28;20037;-63
2022/04/06 04:16:10;;;;;;;15.77;4.43;;;;;;;8.28;83.59;100245.06;5044112;28;20036;-66
2022/04/06 04:18:35;;;;;;;15.18;4.35;;;;;;;8.30;83.57;100237.44;5044534;28;20029;-63
2022/04/06 04:23:45;;;;;;;15.10;4.63;;;;;;;8.25;83.16;100237.28;5041076;28;20056;-63
2022/04/06 04:26:10;;;;;;;12.82;4.15;;;;;;;8.25;83.16;100226.34;5044079;28;20017;-63
2022/04/06 04:28:35;;;;;;;11.85;3.40;;;;;;;8.36;82.13;100238.44;5044005;28;20048;-63
2022/04/06 04:31:01;;;;;;;16.95;4.43;;;;;;;8.25;82.89;100231.81;5043781;28;20013;-63
2022/04/06 04:33:26;;;;;;;14.73;4.47;;;;;;;8.23;83.70;100228.50;5042409;28;20044;-63
2022/04/06 04:35:51;;;;;;;13.70;3.88;;;;;;;8.25;82.98;100228.25;5044036;28;20032;-63
2022/04/06 04:38:17;;;;;;;16.02;4.63;;;;;;;8.29;82.21;100222.09;5043353;28;20032;-63
2022/04/06 04:40:42;;;;;;;15.18;3.75;;;;;;;8.23;83.48;100225.75;5043123;28;20025;-64
2022/04/06 04:43:07;;;;;;;14.27;4.05;;;;;;;8.26;83.60;100232.66;5044193;28;20021;-63
2022/04/06 04:45:32;;;;;;;11.68;4.25;;;;;;;8.28;83.57;100223.16;5042222;28;20060;-63
2022/04/06 04:47:58;;;;;;;16.65;4.28;;;;;;;8.25;83.70;100220.88;5043121;28;20032;-63
2022/04/06 04:50:23;;;;;;;18.65;5.72;;;;;;;8.23;84.62;100217.56;5043472;28;20549;-63
2022/04/06 04:52:49;;;;;;;14.20;4.60;;;;;;;8.22;84.39;100215.88;5041976;28;20064;-63
2022/04/06 04:55:14;;;;;;;14.77;4.63;;;;;;;8.24;84.60;100221.94;5040286;28;20020;-64
2022/04/06 04:57:39;;;;;;;15.93;5.20;;;;;;;8.26;84.46;100216.25;5043480;28;20017;-63
2022/04/06 05:00:07;;;;;;;19.35;6.13;;;;;;;8.24;85.00;100223.84;5041631;28;20471;-63
2022/04/06 05:02:33;;;;;;;18.80;5.22;;;;;;;8.28;84.79;100203.19;5043068;28;20033;-63
2022/04/06 05:04:58;;;;;;;16.48;5.60;;;;;;;8.28;85.65;100211.41;5041645;28;20032;-65
2022/04/06 05:07:23;;;;;;;19.33;6.00;;;;;;;8.26;86.09;100197.94;5042603;28;20118;-63
2022/04/06 05:09:49;;;;;;;20.20;6.00;;;;;;;8.32;85.82;100204.41;5041990;28;20510;-63
2022/04/06 05:12:15;;;;;;;17.58;6.45;;;;;;;8.30;86.11;100204.59;5044051;28;20039;-63
2022/04/06 05:14:41;;;;;;;19.45;6.68;;;;;;;8.28;86.86;100204.00;5042125;28;20480;-67
2022/04/06 05:17:06;;;;;;;17.92;7.85;;;;;;;8.33;85.89;100193.22;5043256;28;20033;-63
2022/04/06 05:19:32;;;;;;;25.17;7.65;;;;;;;8.33;86.14;100195.94;5041282;28;20033;-63
2022/04/06 05:21:59;;;;;;;22.83;7.50;;;;;;;8.35;86.27;100194.88;5042703;28;20033;-62
2022/04/06 05:24:24;;;;;;;23.85;7.28;;;;;;;8.36;86.33;100193.81;5043131;28;20029;-63
2022/04/06 05:26:49;;;;;;;22.10;7.20;;;;;;;8.37;86.60;100201.00;5042754;28;20028;-63
2022/04/06 05:29:15;;;;;;;19.50;6.60;;;;;;;8.36;86.75;100193.81;5042178;28;20033;-63
2022/04/06 05:31:40;;;;;;;22.83;6.70;;;;;;;8.38;86.31;100188.97;5042371;28;20032;-63
2022/04/06 05:34:05;;;;;;;22.33;5.60;;;;;;;8.42;86.35;100181.97;5042014;28;20029;-63
2022/04/06 05:36:31;;;;;;;20.75;7.40;;;;;;;8.42;86.10;100184.72;5041668;28;20025;-63
2022/04/06 05:38:57;;;;;;;22.83;7.63;;;;;;;8.42;86.25;100184.72;5042952;28;20154;-63
2022/04/06 05:41:22;;;;;;;22.95;7.90;;;;;;;8.44;85.43;100175.19;5042353;28;20021;-63
2022/04/06 05:43:48;;;;;;;19.75;7.38;;;;;;;8.45;85.71;100179.59;5040940;28;20699;-63
2022/04/06 05:46:13;;;;;;;20.35;7.78;;;;;;;8.47;85.00;100182.13;5042535;28;20035;-63
2022/04/06 05:48:38;;;;;;;18.40;7.10;;;;;;;8.48;85.60;100181.03;5040798;28;20420;-63
2022/04/06 05:51:04;;;;;;;22.67;6.47;;;;;;;8.49;85.10;100179.97;5041719;28;20036;-63
2022/04/06 05:53:30;;;;;;;16.33;5.53;;;;;;;8.51;85.04;100177.81;5042330;28;20564;-63
2022/04/06 05:55:55;;;;;;;21.10;6.63;;;;;;;8.55;83.84;100176.28;5042561;28;20021;-63
2022/04/06 05:58:20;;;;;;;17.75;4.85;;;;;;;8.51;84.23;100173.19;5039654;28;20112;-63
2022/04/06 06:00:45;;;;;;;21.80;5.18;;;;;;;8.53;84.65;100178.44;5040287;28;20384;-63
2022/04/06 06:03:11;;;;;;;17.45;5.55;;;;;;;8.57;84.07;100180.47;5042494;28;20063;-67
2022/04/06 06:05:36;;;;;;;18.52;5.97;;;;;;;8.60;83.52;100178.34;5042466;28;20029;-63
2022/04/06 06:08:01;;;;;;;17.65;4.70;;;;;;;8.63;83.17;100188.81;5039188;28;20031;-63
2022/04/06 06:10:27;;;;;;;17.65;4.72;;;;;;;8.58;83.64;100182.16;5056776;28;20017;-63
2022/04/06 06:12:52;;;;;;;15.63;5.22;;;;;;;8.67;83.18;100174.44;5042913;28;20037;-63
2022/04/06 06:15:17;;;;;;;17.45;4.60;;;;;;;8.71;82.09;100178.34;5041677;28;20592;-63
2022/04/06 06:17:42;;;;;;;16.83;4.22;;;;;;;8.69;82.69;100175.03;5042377;28;20029;-63
2022/04/06 06:20:08;;;;;;;15.00;4.05;;;;;;;8.77;81.32;100179.34;5042688;28;20127;-63
2022/04/06 06:22:34;;;;;;;13.82;4.20;;;;;;;8.76;80.85;100178.47;5041414;28;20033;-63
2022/04/06 06:25:00;;;;;;;13.70;3.95;;;;;;;8.81;80.52;100183.25;5042587;28;20025;-63
2022/04/06 06:27:26;;;;;;;15.88;3.85;;;;;;;8.89;79.08;100187.56;5041987;28;20137;-63
2022/04/06 06:29:51;;;;;;;14.73;3.97;;;;;;;8.89;78.12;100182.91;5042131;28;20505;-63
2022/04/06 06:32:16;;;;;;;15.65;3.20;;;;;;;8.97;78.14;100181.72;5042183;28;20041;-63
2022/04/06 06:34:42;;;;;;;11.63;4.05;;;;;;;8.87;78.10;100179.59;5042290;28;20104;-63
2022/04/06 06:37:07;;;;;;;12.57;3.20;;;;;;;8.87;78.20;100176.00;5041023;28;20665;-63
2022/04/06 06:39:32;;;;;;;11.60;3.55;;;;;;;8.90;77.52;100178.28;5042569;28;20475;-63
2022/04/06 06:41:57;;;;;;;17.27;4.10;;;;;;;8.88;76.63;100177.69;5041531;28;20021;-63
2022/04/06 06:44:23;;;;;;;11.15;3.53;;;;;;;8.98;74.94;100169.72;5040047;28;20163;-63
2022/04/06 06:46:48;;;;;;;9.50;3.60;;;;;;;8.94;74.60;100180.31;5040947;28;20033;-63
2022/04/06 06:49:14;;;;;;;7.93;3.33;;;;;;;8.99;73.73;100171.38;5043965;28;20061;-63
2022/04/06 06:51:40;;;;;;;12.27;3.50;;;;;;;9.06;73.04;100156.47;5046816;28;20029;-63
2022/04/06 06:54:05;;;;;;;8.88;3.00;;;;;;;9.09;72.57;100166.97;5043056;28;20056;-63
2022/04/06 06:56:31;;;;;;;6.63;2.55;;;;;;;9.08;72.63;100157.09;5045950;28;20033;-63
2022/04/06 06:58:56;;;;;;;11.57;3.00;;;;;;;9.10;73.48;100163.16;5044695;28;20025;-63
2022/04/06 07:01:21;;;;;;;8.40;2.63;;;;;;;9.31;71.90;100167.22;5045523;28;20057;-63
2022/04/06 07:03:47;;;;;;;9.52;3.13;;;;;;;9.23;72.58;100164.00;5044112;28;20048;-63
2022/04/06 07:06:13;;;;;;;11.40;2.70;;;;;;;9.24;72.52;100173.91;5044429;28;20037;-63
2022/04/06 07:08:38;;;;;;;7.72;2.60;;;;;;;9.25;71.89;100164.59;5045796;28;20660;-63
2022/04/06 07:11:04;;;;;;;9.32;2.55;;;;;;;9.26;71.10;100161.59;5045035;28;20078;-63
2022/04/06 07:13:29;;;;;;;7.15;2.38;;;;;;;9.21;72.35;100161.50;5046179;28;20025;-63
2022/04/06 07:15:54;;;;;;;9.02;2.30;;;;;;;9.28;71.24;100162.22;5044390;28;20052;-63
2022/04/06 07:18:21;;;;;;;9.05;2.33;;;;;;;9.35;70.96;100153.88;5042072;28;20654;-64
2022/04/06 07:20:47;;;;;;;9.80;2.55;;;;;;;9.24;71.52;100151.97;5042958;28;20616;-63
2022/04/06 07:23:12;;;;;;;9.25;2.92;;;;;;;9.32;70.70;100151.59;5043663;28;20040;-64
2022/04/06 07:25:39;;;;;;;13.55;2.88;;;;;;;9.36;70.88;100153.63;5046105;28;20025;-63
2022/04/06 07:28:05;;;;;;;8.65;2.70;;;;;;;9.43;70.58;100142.56;5043525;28;20029;-63
2022/04/06 07:30:30;;;;;;;14.23;2.55;;;;;;;9.34;71.17;100141.25;5045131;28;20040;-63
2022/04/06 07:32:57;;;;;;;12.20;3.08;;;;;;;9.37;72.00;100138.00;5045694;28;20041;-63
2022/04/06 07:35:23;;;;;;;11.63;2.80;;;;;;;9.37;71.46;100129.78;5045276;28;20017;-63
2022/04/06 07:37:51;;;;;;;8.73;2.88;;;;;;;9.39;71.54;100137.78;5044618;28;20025;-63
2022/04/06 07:40:19;;;;;;;10.10;2.40;;;;;;;9.36;72.08;100130.88;5041939;28;20029;-63
2022/04/06 07:42:44;;;;;;;12.30;3.03;;;;;;;9.49;71.00;100119.66;5040391;28;20132;-63
2022/04/06 07:45:16;;;;;;;9.40;2.70;;;;;;;9.45;71.56;100125.84;5049255;28;20112;-63
2022/04/06 07:47:41;;;;;;;11.85;2.90;;;;;;;9.45;72.96;100123.13;5039886;28;20484;-64
2022/04/06 07:50:08;;;;;;;10.00;2.80;;;;;;;9.54;72.40;100113.44;5043018;28;20064;-63
2022/04/06 07:52:35;;;;;;;12.38;2.97;;;;;;;9.66;73.25;100119.72;5042314;28;20082;-64
2022/04/06 07:55:00;;;;;;;12.27;3.80;;;;;;;9.84;74.39;100119.56;5045364;28;20037;-63
2022/04/06 07:57:27;;;;;;;12.95;3.42;;;;;;;10.02;73.37;100106.72;5051739;28;20025;-63
2022/04/06 07:59:54;;;;;;;11.20;3.60;;;;;;;10.19;74.39;100107.63;5048736;28;20040;-63
2022/04/06 08:02:19;;;;;;;11.18;3.90;;;;;;;10.33;72.79;100108.97;5053057;28;20106;-63
2022/04/06 08:04:45;;;;;;;11.35;3.60;;;;;;;10.32;72.96;100117.47;5044784;28;20422;-63
2022/04/06 08:07:10;;;;;;;12.02;4.22;;;;;;;10.10;73.84;100109.09;5042602;28;20116;-67
2022/04/06 08:09:35;;;;;;;15.40;4.07;;;;;;;10.07;75.00;100115.03;5042116;28;20107;-63
2022/04/06 08:12:01;;;;;;;11.18;4.25;;;;;;;9.94;74.07;100107.97;5042214;28;20460;-63
2022/04/06 08:14:27;;;;;;;13.23;4.50;;;;;;;9.73;75.14;100117.69;5041730;28;20075;-63
2022/04/06 08:16:55;;;;;;;14.73;4.93;;;;;;;9.74;75.41;100124.84;5037717;28;20135;-63
2022/04/06 08:19:20;;;;;;;10.88;4.47;;;;;;;9.56;76.48;100117.59;5043508;28;20045;-63
2022/04/06 08:21:45;;;;;;;12.35;4.72;;;;;;;9.52;76.92;100115.56;5040471;28;20078;-63
2022/04/06 08:24:11;;;;;;;11.35;4.43;;;;;;;9.53;77.67;100123.59;5049062;28;20379;-64
2022/04/06 08:26:36;;;;;;;12.32;4.53;;;;;;;9.54;77.84;100129.91;5048202;28;20033;-63
2022/04/06 08:29:01;;;;;;;16.35;5.28;;;;;;;9.63;77.67;100120.22;5041058;28;20033;-62
2022/04/06 08:31:27;;;;;;;13.43;5.32;;;;;;;9.71;75.53;100125.31;5042589;28;20055;-63
2022/04/06 08:33:52;;;;;;;11.75;4.30;;;;;;;9.66;76.18;100122.47;5056167;28;20028;-63
2022/04/06 08:36:17;;;;;;;11.60;4.05;;;;;;;9.65;76.20;100119.97;5042187;28;20119;-63
2022/04/06 08:38:43;;;;;;;18.48;5.07;;;;;;;9.63;76.43;100117.50;5043258;28;20083;-63
2022/04/06 08:41:09;;;;;;;12.82;4.78;;;;;;;9.60;75.77;100107.00;5042696;28;20146;-63
2022/04/06 08:43:34;;;;;;;12.18;4.60;;;;;;;9.57;76.18;100115.69;5051418;28;20040;-63
2022/04/06 08:45:59;;;;;;;17.73;4.78;;;;;;;9.66;76.41;100106.00;5032613;28;20568;-63
2022/04/06 08:48:30;;;;;;;14.55;5.55;;;;;;;9.78;75.92;100105.97;5040676;28;20067;-62
2022/04/06 08:51:00;;;;;;;12.48;4.50;;;;;;;9.90;75.32;100105.94;5040906;28;20033;-63
2022/04/06 08:53:25;;;;;;;11.73;4.47;;;;;;;9.90;75.68;100111.44;5037147;28;20033;-63
2022/04/06 08:55:50;;;;;;;15.38;5.35;;;;;;;9.83;76.29;100103.31;5044111;28;20349;-63
2022/04/06 08:58:16;;;;;;;15.00;5.97;;;;;;;9.86;76.09;100095.44;5040730;28;20415;-63
2022/04/06 09:00:41;;;;;;;12.88;4.95;;;;;;;9.84;75.77;100099.53;5041527;28;20033;-64
2022/04/06 09:03:07;;;;;;;14.00;4.78;;;;;;;9.80;76.08;100101.91;5038756;28;20035;-63
2022/04/06 09:05:34;;;;;;;10.80;4.65;;;;;;;9.81;76.41;100114.56;5037685;28;20043;-63
2022/04/06 09:08:00;;;;;;;12.55;4.57;;;;;;;9.82;77.28;100115.38;5037680;28;20032;-63
2022/04/06 09:10:33;;;;;;;11.68;4.50;;;;;;;9.90;77.56;100112.25;5042691;28;20154;-63
2022/04/06 09:13:15;;;;;;;13.32;4.75;;;;;;;10.01;77.57;100116.03;5038935;28;20482;-64
2022/04/06 09:15:41;;;;;;;14.85;4.63;;;;;;;10.06;78.40;100116.13;5042239;28;20120;-64
2022/04/06 09:18:06;;;;;;;10.07;4.95;;;;;;;9.97;78.63;100103.88;5044372;28;20021;-63
2022/04/06 09:20:32;;;;;;;12.27;4.60;;;;;;;10.01;78.61;100105.06;5041743;28;20028;-62
2022/04/06 09:23:04;;;;;;;11.75;4.85;;;;;;;9.94;80.50;100113.44;5038461;28;20395;-63
2022/04/06 09:25:37;;;;;;;13.68;5.15;;;;;;;9.90;80.10;100106.78;5042624;28;20033;-64
2022/04/06 09:28:06;;;;;;;14.77;5.00;;;;;;;9.83;80.13;100111.56;5040397;28;20025;-63
2022/04/06 09:30:35;;;;;;;14.38;4.68;;;;;;;9.76;80.20;100110.88;5043232;28;20033;-63
2022/04/06 09:33:03;;;;;;;;;;;;;;;9.82;79.50;100104.41;5043105;28;20819;-63
2022/04/06 09:35:29;;;;;;;14.15;5.13;;;;;;;9.70;81.39;100111.84;5041939;28;19916;-63
2022/04/06 09:38:16;;;;;;;14.15;4.82;;;;;;;9.72;80.06;100105.03;5040793;28;20036;-63
2022/04/06 09:40:43;;;;;;;17.80;5.05;;;;;;;9.61;80.24;100108.66;5036885;28;20041;-64
2022/04/06 09:43:23;;;;;;;11.20;4.65;;;;;;;9.70;80.17;100092.66;5039525;28;20045;-63
2022/04/06 09:48:32;;;;;;;16.38;5.63;;;;;;;9.84;79.88;100097.63;5040053;28;20626;-63
2022/04/06 09:50:58;;;;;;;12.38;5.10;;;;;;;9.71;80.78;100103.38;5042588;28;20084;-63
2022/04/06 09:53:26;;;;;;;17.50;4.95;;;;;;;9.81;80.67;100094.53;5041277;28;20021;-63
2022/04/06 09:55:54;;;;;;;10.65;4.07;;;;;;;9.80;80.13;100101.09;5039679;28;20028;-63
2022/04/06 09:58:21;;;;;;;11.98;5.20;;;;;;;9.71;81.69;100097.91;5039577;28;20106;-64
2022/04/06 10:00:46;;;;;;;14.77;5.20;;;;;;;9.77;81.65;100099.66;5040176;28;20033;-63
2022/04/06 10:03:15;;;;;;;12.48;5.15;;;;;;;9.81;81.90;100100.00;5037738;28;20074;-64
2022/04/06 10:05:42;;;;;;;12.85;5.63;;;;;;;9.78;81.09;100092.25;5040661;28;20586;-62
2022/04/06 10:08:09;;;;;;;13.70;5.32;;;;;;;9.69;82.95;100089.09;5040850;28;20411;-63
2022/04/06 10:10:38;;;;;;;11.03;5.67;;;;;;;9.75;82.52;100093.59;5042684;28;20074;-63
2022/04/06 10:13:07;;;;;;;;;;;;;;;9.88;80.69;100086.97;5038890;28;20025;-63
2022/04/06 10:15:34;;;;;;;15.85;5.55;;;;;;;9.78;81.54;100084.88;5041457;28;19917;-63
2022/04/06 10:18:01;;;;;;;12.10;5.47;;;;;;;9.75;82.11;100082.63;5038544;28;20491;-63
2022/04/06 10:20:35;;;;;;;17.10;6.07;;;;;;;9.89;81.48;100083.19;5043136;28;20044;-63
2022/04/06 10:23:31;;;;;;;13.27;5.93;;;;;;;9.71;83.32;100086.09;5039939;28;20071;-64
2022/04/06 10:26:04;;;;;;;11.20;5.88;;;;;;;9.69;83.22;100078.13;5039203;28;20029;-63
2022/04/06 10:28:33;;;;;;;15.98;6.15;;;;;;;9.71;83.43;100078.69;5041813;28;20033;-63
2022/04/06 10:31:22;;;;;;;13.05;5.45;;;;;;;9.69;83.75;100078.13;5040722;28;20047;-66
2022/04/06 10:33:50;;;;;;;10.07;5.55;;;;;;;9.65;84.40;100076.94;5042492;28;20025;-63
2022/04/06 10:36:16;;;;;;;12.47;5.37;;;;;;;9.67;83.77;100072.03;5045471;28;20029;-63
2022/04/06 10:39:01;;;;;;;14.43;4.90;;;;;;;9.69;83.80;100067.16;5045423;28;20489;-63
2022/04/06 10:41:26;;;;;;;15.10;5.22;;;;;;;9.74;82.82;100064.50;5046245;28;20061;-63
2022/04/06 10:43:52;;;;;;;14.10;5.35;;;;;;;9.69;83.48;100069.91;5037547;28;20064;-63
2022/04/06 10:46:32;;;;;;;13.00;5.10;;;;;;;9.75;83.53;100060.69;5045552;28;20045;-63
2022/04/06 10:49:09;;;;;;;11.05;5.10;;;;;;;9.64;83.83;100064.31;5047007;28;20099;-63
2022/04/06 10:51:40;;;;;;;12.93;5.05;;;;;;;9.65;84.36;100070.63;5046085;28;20029;-63
2022/04/06 10:54:11;;;;;;;12.15;4.93;;;;;;;9.71;83.62;100061.41;5046993;28;20414;-63
2022/04/06 10:56:59;;;;;;;12.82;5.47;;;;;;;9.67;83.78;100069.28;5027084;28;20092;-63
2022/04/06 10:59:26;;;;;;;15.48;5.53;;;;;;;9.68;83.11;100054.53;5040038;28;20068;-63
2022/04/06 11:02:15;;;;;;;11.65;5.43;;;;;;;9.79;83.09;100055.56;5037264;28;20043;-63
2022/04/06 11:04:41;;;;;;;11.18;4.68;;;;;;;9.71;81.97;100048.53;5040292;28;20040;-64
2022/04/06 11:07:08;;;;;;;12.15;5.38;;;;;;;9.74;83.55;100058.19;5044513;28;20033;-63
2022/04/06 11:12:30;;;;;;;10.57;5.00;;;;;;;9.86;81.74;100050.75;5042896;28;20064;-63
2022/04/06 11:15:01;;;;;;;11.75;3.90;;;;;;;9.93;81.38;100045.09;5043133;28;20601;-62
2022/04/06 11:17:32;;;;;;;12.45;5.13;;;;;;;9.91;81.46;100047.25;5042873;28;20051;-63
2022/04/06 11:20:09;;;;;;;10.32;4.68;;;;;;;10.02;81.13;100038.13;5041674;28;20667;-63
2022/04/06 11:22:43;;;;;;;10.10;4.68;;;;;;;9.97;80.11;100047.09;5043126;28;20419;-63
2022/04/06 11:25:16;;;;;;;10.60;4.10;;;;;;;10.03;79.93;100034.31;5044645;28;20052;-63
2022/04/06 11:27:46;;;;;;;11.35;4.32;;;;;;;10.02;80.65;100036.22;5042761;28;20112;-63
2022/04/06 11:30:16;;;;;;;9.30;4.30;;;;;;;9.96;79.32;100039.13;5042688;28;20113;-64
2022/04/06 11:32:51;;;;;;;10.05;4.10;;;;;;;9.95;79.18;100026.50;5038554;28;20053;-63
2022/04/06 11:35:16;;;;;;;13.93;5.60;;;;;;;9.96;79.49;100018.00;5044362;28;20064;-63